Partizansk, Russia
Current Conditions -  °F | °C
As of 8:30 AM on Tuesday 25 Nov 2014 (Local Time) from UHWW Reporting Station
Haze Haze  
Wind Chill: 19°   Ceiling: Unl
Heat Index: 19°   Visibility: 3mi
Dew Point: 14°   Wind: 2mph
Humidity: 80%   Direction: NA
Pressure: 30.3"   Gusts: NA
Location:  43.13°N, 133.13°E
Report Text: UHWW 242230Z VRB01MPS 5000 BR SKC M07/M10 Q1026 NOSIG RMKQFE768/1025 25CLRD70
Loading
Personal Weather Stations






























Interactive Weather Map New forecast layout! Learn more

10-Day Weather Forecast

Advertisements
Track Severe Weather on mobile